Terminal Aerodrome Forecast
Issued by NWS

Current Version | Previous Version | Text Only | Print | Product List | Glossary On
Versions: 1 2 3 4 5 6 7 8 9 10 11 12
000
FTUS42 TJSJ 290550
TAFJMZ
TAF
TJMZ 290550Z 2906/3006 VRB04KT P6SM SCT090
     FM291200 28007KT P6SM FEW030 SCT060
     FM291800 VRB10G18KT P6SM VCTS BKN030CB
      AMD NOT SKED TIL 291500=

USA.gov is the U.S. government's official web portal to all federal, state and local government web resources and services.